Guernsey, Wyoming
Current Conditions -  °F | °C
As of 1:15 AM on Tuesday 27 Jan 2015 (Local Time) from KGUR Reporting Station
Clear Clear  
Wind Chill: 35°   Ceiling: Unl
Heat Index: 35°   Visibility: 10mi
Dew Point: 32°   Wind: 0mph
Humidity: 88%   Direction: NA
Pressure: 30.1"   Gusts: NA
Location:  42.27°N, 104.74°W
Report Text: KGUR 270815Z AUTO 00000KT 10SM CLR 02/00 A3010 RMK AO2 T00161002 PWINO
Loading
Personal Weather Stations






























Interactive Weather Map New forecast layout! Learn more

10-Day Weather Forecast

Advertisements
Track Severe Weather on mobile